sensor_id;sensor_type;location;lat;lon;timestamp;pressure;altitude;pressure_sealevel;temperature;humidity
10587;BME280;5341;47.606;7.576;2023-04-20T00:00:05;98675.28;;;13.46;56.15
10587;BME280;5341;47.606;7.576;2023-04-20T00:02:39;98670.09;;;13.44;56.25
10587;BME280;5341;47.606;7.576;2023-04-20T00:05:08;98663.91;;;13.44;55.90
10587;BME280;5341;47.606;7.576;2023-04-20T00:07:36;98667.63;;;13.43;56.16
10587;BME280;5341;47.606;7.576;2023-04-20T00:10:07;98650.69;;;13.42;56.07
10587;BME280;5341;47.606;7.576;2023-04-20T00:12:35;98649.03;;;13.41;56.08
10587;BME280;5341;47.606;7.576;2023-04-20T00:15:06;98643.66;;;13.41;56.09
10587;BME280;5341;47.606;7.576;2023-04-20T00:17:33;98633.94;;;13.40;56.23
10587;BME280;5341;47.606;7.576;2023-04-20T00:20:01;98641.16;;;13.40;55.94
10587;BME280;5341;47.606;7.576;2023-04-20T00:22:30;98627.94;;;13.38;56.02
10587;BME280;5341;47.606;7.576;2023-04-20T00:24:57;98626.28;;;13.37;56.07
10587;BME280;5341;47.606;7.576;2023-04-20T00:27:25;98619.28;;;13.36;56.32
10587;BME280;5341;47.606;7.576;2023-04-20T00:29:56;98619.47;;;13.35;56.21
10587;BME280;5341;47.606;7.576;2023-04-20T00:32:26;98613.50;;;13.33;56.18
10587;BME280;5341;47.606;7.576;2023-04-20T00:34:55;98609.94;;;13.32;56.11
10587;BME280;5341;47.606;7.576;2023-04-20T00:37:22;98603.13;;;13.30;56.08
10587;BME280;5341;47.606;7.576;2023-04-20T00:39:54;98599.81;;;13.28;55.61
10587;BME280;5341;47.606;7.576;2023-04-20T00:42:23;98593.84;;;13.26;56.04
10587;BME280;5341;47.606;7.576;2023-04-20T00:44:51;98589.50;;;13.25;55.92
10587;BME280;5341;47.606;7.576;2023-04-20T00:47:19;98587.63;;;13.25;56.07
10587;BME280;5341;47.606;7.576;2023-04-20T00:49:50;98588.47;;;13.26;56.05
10587;BME280;5341;47.606;7.576;2023-04-20T00:52:19;98580.41;;;13.26;55.83
10587;BME280;5341;47.606;7.576;2023-04-20T00:54:50;98578.75;;;13.25;56.02
10587;BME280;5341;47.606;7.576;2023-04-20T00:57:21;98577.94;;;13.24;55.83
10587;BME280;5341;47.606;7.576;2023-04-20T00:59:56;98572.97;;;13.21;55.54
10587;BME280;5341;47.606;7.576;2023-04-20T01:02:28;98567.97;;;13.18;55.52
10587;BME280;5341;47.606;7.576;2023-04-20T01:04:58;98572.69;;;13.16;55.63
10587;BME280;5341;47.606;7.576;2023-04-20T01:07:29;98560.53;;;13.13;55.96
10587;BME280;5341;47.606;7.576;2023-04-20T01:09:57;98556.41;;;13.11;55.42
10587;BME280;5341;47.606;7.576;2023-04-20T01:12:25;98546.03;;;13.08;55.26
10587;BME280;5341;47.606;7.576;2023-04-20T01:14:53;98544.59;;;13.05;55.14
10587;BME280;5341;47.606;7.576;2023-04-20T01:17:20;98530.56;;;13.03;55.66
10587;BME280;5341;47.606;7.576;2023-04-20T01:19:49;98528.28;;;13.00;55.06
10587;BME280;5341;47.606;7.576;2023-04-20T01:22:18;98523.13;;;12.99;55.36
10587;BME280;5341;47.606;7.576;2023-04-20T01:24:46;98521.66;;;12.96;55.35
10587;BME280;5341;47.606;7.576;2023-04-20T01:27:14;98512.97;;;12.94;55.24
10587;BME280;5341;47.606;7.576;2023-04-20T01:29:43;98518.13;;;12.96;55.15
10587;BME280;5341;47.606;7.576;2023-04-20T01:32:11;98511.94;;;12.95;55.48
10587;BME280;5341;47.606;7.576;2023-04-20T01:34:39;98514.00;;;12.93;55.37
10587;BME280;5341;47.606;7.576;2023-04-20T01:37:07;98500.59;;;12.93;55.42
10587;BME280;5341;47.606;7.576;2023-04-20T01:39:37;98495.22;;;12.93;55.01
10587;BME280;5341;47.606;7.576;2023-04-20T01:42:05;98493.56;;;12.92;55.26
10587;BME280;5341;47.606;7.576;2023-04-20T01:44:33;98496.47;;;12.90;55.13
10587;BME280;5341;47.606;7.576;2023-04-20T01:47:00;98493.34;;;12.94;55.76
10587;BME280;5341;47.606;7.576;2023-04-20T01:49:32;98481.59;;;12.95;55.96
10587;BME280;5341;47.606;7.576;2023-04-20T01:51:59;98486.56;;;12.98;55.74
10587;BME280;5341;47.606;7.576;2023-04-20T01:54:27;98489.25;;;12.98;55.59
10587;BME280;5341;47.606;7.576;2023-04-20T01:56:57;98484.72;;;12.98;55.70
10587;BME280;5341;47.606;7.576;2023-04-20T01:59:24;98475.84;;;12.98;55.85
10587;BME280;5341;47.606;7.576;2023-04-20T02:01:52;98479.56;;;12.97;55.92
10587;BME280;5341;47.606;7.576;2023-04-20T02:04:20;98475.19;;;12.96;55.98
10587;BME280;5341;47.606;7.576;2023-04-20T02:06:47;98478.69;;;12.96;56.12
10587;BME280;5341;47.606;7.576;2023-04-20T02:09:15;98473.34;;;12.96;56.03
10587;BME280;5341;47.606;7.576;2023-04-20T02:11:42;98466.13;;;12.97;56.19
10587;BME280;5341;47.606;7.576;2023-04-20T02:14:12;98473.34;;;12.96;56.51
10587;BME280;5341;47.606;7.576;2023-04-20T02:16:40;98476.88;;;12.97;55.90
10587;BME280;5341;47.606;7.576;2023-04-20T02:19:08;98466.31;;;12.95;56.15
10587;BME280;5341;47.606;7.576;2023-04-20T02:21:36;98457.66;;;12.93;55.76
10587;BME280;5341;47.606;7.576;2023-04-20T02:24:04;98454.56;;;12.89;55.96
10587;BME280;5341;47.606;7.576;2023-04-20T02:26:31;98447.31;;;12.90;56.26
10587;BME280;5341;47.606;7.576;2023-04-20T02:28:59;98453.31;;;12.92;56.27
10587;BME280;5341;47.606;7.576;2023-04-20T02:31:28;98449.81;;;12.91;56.13
10587;BME280;5341;47.606;7.576;2023-04-20T02:33:55;98445.25;;;12.92;56.34
10587;BME280;5341;47.606;7.576;2023-04-20T02:36:26;98447.13;;;12.91;55.96
10587;BME280;5341;47.606;7.576;2023-04-20T02:38:53;98430.19;;;12.91;56.72
10587;BME280;5341;47.606;7.576;2023-04-20T02:41:21;98439.88;;;12.92;56.72
10587;BME280;5341;47.606;7.576;2023-04-20T02:43:49;98439.88;;;12.92;56.52
10587;BME280;5341;47.606;7.576;2023-04-20T02:46:16;98436.38;;;12.91;56.33
10587;BME280;5341;47.606;7.576;2023-04-20T02:48:49;98432.88;;;12.91;56.78
10587;BME280;5341;47.606;7.576;2023-04-20T02:51:16;98435.75;;;12.89;56.78
10587;BME280;5341;47.606;7.576;2023-04-20T02:53:45;98430.19;;;12.91;56.73
10587;BME280;5341;47.606;7.576;2023-04-20T02:56:26;98425.03;;;12.89;56.79
10587;BME280;5341;47.606;7.576;2023-04-20T02:58:57;98423.38;;;12.88;56.25
10587;BME280;5341;47.606;7.576;2023-04-20T03:01:32;98426.28;;;12.87;56.23
10587;BME280;5341;47.606;7.576;2023-04-20T03:04:09;98428.97;;;12.87;56.24
10587;BME280;5341;47.606;7.576;2023-04-20T03:06:43;98427.09;;;12.87;56.85
10587;BME280;5341;47.606;7.576;2023-04-20T03:09:15;98423.59;;;12.87;56.59
10587;BME280;5341;47.606;7.576;2023-04-20T03:11:54;98422.16;;;12.84;56.75
10587;BME280;5341;47.606;7.576;2023-04-20T03:14:41;98422.16;;;12.84;56.87
10587;BME280;5341;47.606;7.576;2023-04-20T03:17:08;98417.78;;;12.83;56.26
10587;BME280;5341;47.606;7.576;2023-04-20T03:19:37;98415.09;;;12.83;56.44
10587;BME280;5341;47.606;7.576;2023-04-20T03:22:07;98420.69;;;12.82;56.72
10587;BME280;5341;47.606;7.576;2023-04-20T03:24:35;98418.81;;;12.82;56.66
10587;BME280;5341;47.606;7.576;2023-04-20T03:27:12;98414.50;;;12.81;56.87
10587;BME280;5341;47.606;7.576;2023-04-20T03:29:59;98408.28;;;12.81;56.60
10587;BME280;5341;47.606;7.576;2023-04-20T03:32:27;98396.75;;;12.80;56.50
10587;BME280;5341;47.606;7.576;2023-04-20T03:34:56;98399.41;;;12.80;56.93
10587;BME280;5341;47.606;7.576;2023-04-20T03:37:23;98396.75;;;12.80;56.54
10587;BME280;5341;47.606;7.576;2023-04-20T03:39:51;98398.81;;;12.78;56.32
10587;BME280;5341;47.606;7.576;2023-04-20T03:42:18;98402.53;;;12.77;56.76
10587;BME280;5341;47.606;7.576;2023-04-20T03:44:47;98406.03;;;12.78;56.77
10587;BME280;5341;47.606;7.576;2023-04-20T03:47:15;98399.00;;;12.77;56.49
10587;BME280;5341;47.606;7.576;2023-04-20T03:49:42;98404.59;;;12.75;56.41
10587;BME280;5341;47.606;7.576;2023-04-20T03:52:11;98398.41;;;12.75;56.36
10587;BME280;5341;47.606;7.576;2023-04-20T03:54:39;98394.88;;;12.74;56.32
10587;BME280;5341;47.606;7.576;2023-04-20T03:57:07;98388.69;;;12.74;56.42
10587;BME280;5341;47.606;7.576;2023-04-20T03:59:34;98389.53;;;12.74;56.62
10587;BME280;5341;47.606;7.576;2023-04-20T04:02:03;98386.03;;;12.74;56.56
10587;BME280;5341;47.606;7.576;2023-04-20T04:04:31;98383.34;;;12.74;56.88
10587;BME280;5341;47.606;7.576;2023-04-20T04:06:58;98377.16;;;12.73;56.45
10587;BME280;5341;47.606;7.576;2023-04-20T04:09:27;98375.50;;;12.72;56.35
10587;BME280;5341;47.606;7.576;2023-04-20T04:11:55;98389.91;;;12.71;56.52
10587;BME280;5341;47.606;7.576;2023-04-20T04:14:23;98379.19;;;12.71;56.49
10587;BME280;5341;47.606;7.576;2023-04-20T04:16:51;98379.19;;;12.71;56.77
10587;BME280;5341;47.606;7.576;2023-04-20T04:19:18;98369.28;;;12.72;56.98
10587;BME280;5341;47.606;7.576;2023-04-20T04:21:46;98377.31;;;12.72;57.08
10587;BME280;5341;47.606;7.576;2023-04-20T04:24:14;98377.31;;;12.72;56.56
10587;BME280;5341;47.606;7.576;2023-04-20T04:27:04;98379.19;;;12.71;56.87
10587;BME280;5341;47.606;7.576;2023-04-20T04:29:36;98385.56;;;12.70;56.95
10587;BME280;5341;47.606;7.576;2023-04-20T04:32:07;98380.00;;;12.72;56.83
10587;BME280;5341;47.606;7.576;2023-04-20T04:34:36;98376.72;;;12.70;56.73
10587;BME280;5341;47.606;7.576;2023-04-20T04:37:04;98372.38;;;12.69;56.74
10587;BME280;5341;47.606;7.576;2023-04-20T04:39:46;98377.53;;;12.70;57.12
10587;BME280;5341;47.606;7.576;2023-04-20T04:42:25;98370.50;;;12.69;57.03
10587;BME280;5341;47.606;7.576;2023-04-20T04:44:54;98373.19;;;12.69;56.78
10587;BME280;5341;47.606;7.576;2023-04-20T04:47:26;98372.38;;;12.69;57.07
10587;BME280;5341;47.606;7.576;2023-04-20T04:49:55;98364.53;;;12.67;56.53
10587;BME280;5341;47.606;7.576;2023-04-20T04:52:24;98369.91;;;12.67;56.64
10587;BME280;5341;47.606;7.576;2023-04-20T04:54:53;98377.13;;;12.67;56.76
10587;BME280;5341;47.606;7.576;2023-04-20T04:57:20;98376.50;;;12.65;56.73
10587;BME280;5341;47.606;7.576;2023-04-20T04:59:49;98379.19;;;12.65;56.67
10587;BME280;5341;47.606;7.576;2023-04-20T05:02:16;98383.72;;;12.64;56.73
10587;BME280;5341;47.606;7.576;2023-04-20T05:04:44;98387.44;;;12.63;57.18
10587;BME280;5341;47.606;7.576;2023-04-20T05:07:12;98381.25;;;12.63;57.27
10587;BME280;5341;47.606;7.576;2023-04-20T05:09:40;98386.81;;;12.61;57.28
10587;BME280;5341;47.606;7.576;2023-04-20T05:12:08;98388.88;;;12.59;57.03
10587;BME280;5341;47.606;7.576;2023-04-20T05:14:35;98392.38;;;12.59;56.87
10587;BME280;5341;47.606;7.576;2023-04-20T05:17:04;98389.06;;;12.57;56.83
10587;BME280;5341;47.606;7.576;2023-04-20T05:19:31;98388.44;;;12.55;57.30
10587;BME280;5341;47.606;7.576;2023-04-20T05:21:59;98392.78;;;12.56;57.17
10587;BME280;5341;47.606;7.576;2023-04-20T05:24:26;98394.03;;;12.54;56.89
10587;BME280;5341;47.606;7.576;2023-04-20T05:26:54;98391.75;;;12.51;57.26
10587;BME280;5341;47.606;7.576;2023-04-20T05:29:21;98396.28;;;12.50;57.24
10587;BME280;5341;47.606;7.576;2023-04-20T05:31:49;98394.00;;;12.47;57.20
10587;BME280;5341;47.606;7.576;2023-04-20T05:34:18;98389.66;;;12.46;57.29
10587;BME280;5341;47.606;7.576;2023-04-20T05:36:45;98393.59;;;12.44;57.70
10587;BME280;5341;47.606;7.576;2023-04-20T05:39:13;98388.63;;;12.41;57.14
10587;BME280;5341;47.606;7.576;2023-04-20T05:41:40;98393.19;;;12.40;57.12
10587;BME280;5341;47.606;7.576;2023-04-20T05:44:08;98385.34;;;12.39;57.51
10587;BME280;5341;47.606;7.576;2023-04-20T05:46:35;98394.41;;;12.38;57.56
10587;BME280;5341;47.606;7.576;2023-04-20T05:49:03;98386.56;;;12.36;57.28
10587;BME280;5341;47.606;7.576;2023-04-20T05:51:32;98398.50;;;12.33;57.63
10587;BME280;5341;47.606;7.576;2023-04-20T05:54:00;98399.53;;;12.32;57.48
10587;BME280;5341;47.606;7.576;2023-04-20T05:56:27;98393.56;;;12.30;57.56
10587;BME280;5341;47.606;7.576;2023-04-20T05:58:55;98393.75;;;12.29;57.45
10587;BME280;5341;47.606;7.576;2023-04-20T06:01:23;98403.88;;;12.27;57.47
10587;BME280;5341;47.606;7.576;2023-04-20T06:03:51;98403.25;;;12.25;57.35
10587;BME280;5341;47.606;7.576;2023-04-20T06:06:18;98396.41;;;12.22;57.61
10587;BME280;5341;47.606;7.576;2023-04-20T06:08:47;98400.31;;;12.20;57.74
10587;BME280;5341;47.606;7.576;2023-04-20T06:11:15;98401.78;;;12.16;57.74
10587;BME280;5341;47.606;7.576;2023-04-20T06:13:43;98400.31;;;12.13;57.20
10587;BME280;5341;47.606;7.576;2023-04-20T06:16:10;98406.06;;;12.10;57.15
10587;BME280;5341;47.606;7.576;2023-04-20T06:18:38;98408.94;;;12.09;57.38
10587;BME280;5341;47.606;7.576;2023-04-20T06:21:09;98411.84;;;12.07;57.27
10587;BME280;5341;47.606;7.576;2023-04-20T06:23:37;98406.06;;;12.03;57.12
10587;BME280;5341;47.606;7.576;2023-04-20T06:26:07;98407.91;;;12.03;57.10
10587;BME280;5341;47.606;7.576;2023-04-20T06:28:35;98411.63;;;12.02;57.36
10587;BME280;5341;47.606;7.576;2023-04-20T06:31:03;98410.16;;;11.99;57.20
10587;BME280;5341;47.606;7.576;2023-04-20T06:33:31;98404.16;;;11.97;57.44
10587;BME280;5341;47.606;7.576;2023-04-20T06:35:58;98405.19;;;11.96;57.03
10587;BME280;5341;47.606;7.576;2023-04-20T06:38:26;98410.75;;;11.95;56.99
10587;BME280;5341;47.606;7.576;2023-04-20T06:40:53;98405.78;;;11.92;57.47
10587;BME280;5341;47.606;7.576;2023-04-20T06:43:24;98413.22;;;11.90;56.95
10587;BME280;5341;47.606;7.576;2023-04-20T06:45:52;98400.03;;;11.88;57.37
10587;BME280;5341;47.606;7.576;2023-04-20T06:48:19;98410.91;;;11.87;57.54
10587;BME280;5341;47.606;7.576;2023-04-20T06:50:47;98406.56;;;11.86;56.74
10587;BME280;5341;47.606;7.576;2023-04-20T06:53:15;98416.47;;;11.85;56.88
10587;BME280;5341;47.606;7.576;2023-04-20T06:55:43;98408.63;;;11.84;57.60
10587;BME280;5341;47.606;7.576;2023-04-20T06:58:11;98407.19;;;11.81;57.56
10587;BME280;5341;47.606;7.576;2023-04-20T07:00:40;98408.38;;;11.79;56.59
10587;BME280;5341;47.606;7.576;2023-04-20T07:03:07;98405.09;;;11.77;56.64
10587;BME280;5341;47.606;7.576;2023-04-20T07:05:35;98401.75;;;11.74;56.87
10587;BME280;5341;47.606;7.576;2023-04-20T07:08:05;98399.06;;;11.74;57.07
10587;BME280;5341;47.606;7.576;2023-04-20T07:10:34;98389.38;;;11.73;57.01
10587;BME280;5341;47.606;7.576;2023-04-20T07:13:01;98398.25;;;11.74;57.25
10587;BME280;5341;47.606;7.576;2023-04-20T07:15:29;98407.97;;;11.75;56.63
10587;BME280;5341;47.606;7.576;2023-04-20T07:17:58;98398.06;;;11.76;57.06
10587;BME280;5341;47.606;7.576;2023-04-20T07:20:25;98398.25;;;11.74;57.01
10587;BME280;5341;47.606;7.576;2023-04-20T07:22:53;98399.94;;;11.75;56.97
10587;BME280;5341;47.606;7.576;2023-04-20T07:25:20;98400.91;;;11.74;57.11
10587;BME280;5341;47.606;7.576;2023-04-20T07:27:48;98399.06;;;11.74;57.27
10587;BME280;5341;47.606;7.576;2023-04-20T07:30:15;98391.88;;;11.75;56.56
10587;BME280;5341;47.606;7.576;2023-04-20T07:32:43;98384.69;;;11.76;57.21
10587;BME280;5341;47.606;7.576;2023-04-20T07:35:11;98385.50;;;11.76;57.44
10587;BME280;5341;47.606;7.576;2023-04-20T07:37:39;98380.97;;;11.77;56.98
10587;BME280;5341;47.606;7.576;2023-04-20T07:40:07;98381.78;;;11.77;57.00
10587;BME280;5341;47.606;7.576;2023-04-20T07:42:35;98389.63;;;11.79;57.33
10587;BME280;5341;47.606;7.576;2023-04-20T07:45:03;98390.50;;;11.79;56.98
10587;BME280;5341;47.606;7.576;2023-04-20T07:47:32;98396.66;;;11.80;56.92
10587;BME280;5341;47.606;7.576;2023-04-20T07:50:00;98392.97;;;11.81;57.01
10587;BME280;5341;47.606;7.576;2023-04-20T07:52:29;98390.28;;;11.81;57.19
10587;BME280;5341;47.606;7.576;2023-04-20T07:54:57;98395.44;;;11.82;56.81
10587;BME280;5341;47.606;7.576;2023-04-20T07:57:24;98398.13;;;11.82;57.23
10587;BME280;5341;47.606;7.576;2023-04-20T07:59:52;98400.81;;;11.82;56.75
10587;BME280;5341;47.606;7.576;2023-04-20T08:02:19;98400.81;;;11.82;56.97
10587;BME280;5341;47.606;7.576;2023-04-20T08:04:47;98402.44;;;11.83;56.61
10587;BME280;5341;47.606;7.576;2023-04-20T08:07:14;98404.31;;;11.83;56.77
10587;BME280;5341;47.606;7.576;2023-04-20T08:09:43;98397.09;;;11.83;57.05
10587;BME280;5341;47.606;7.576;2023-04-20T08:12:11;98405.13;;;11.83;56.73
10587;BME280;5341;47.606;7.576;2023-04-20T08:14:39;98404.09;;;11.84;57.28
10587;BME280;5341;47.606;7.576;2023-04-20T08:17:07;98397.91;;;11.84;57.08
10587;BME280;5341;47.606;7.576;2023-04-20T08:19:34;98389.06;;;11.83;56.87
10587;BME280;5341;47.606;7.576;2023-04-20T08:22:04;98396.88;;;11.85;56.45
10587;BME280;5341;47.606;7.576;2023-04-20T08:24:31;98396.88;;;11.85;57.18
10587;BME280;5341;47.606;7.576;2023-04-20T08:27:01;98385.16;;;11.86;57.10
10587;BME280;5341;47.606;7.576;2023-04-20T08:29:29;98393.00;;;11.87;57.36
10587;BME280;5341;47.606;7.576;2023-04-20T08:31:58;98399.19;;;11.88;56.89
10587;BME280;5341;47.606;7.576;2023-04-20T08:34:25;98391.16;;;11.88;56.96
10587;BME280;5341;47.606;7.576;2023-04-20T08:36:53;98390.94;;;11.89;56.80
10587;BME280;5341;47.606;7.576;2023-04-20T08:39:21;98394.03;;;11.93;57.09
10587;BME280;5341;47.606;7.576;2023-04-20T08:41:49;98386.84;;;11.93;57.09
10587;BME280;5341;47.606;7.576;2023-04-20T08:44:23;98395.69;;;11.94;56.85
10587;BME280;5341;47.606;7.576;2023-04-20T08:46:50;98381.47;;;11.93;56.90
10587;BME280;5341;47.606;7.576;2023-04-20T08:49:18;98387.66;;;11.94;57.06
10587;BME280;5341;47.606;7.576;2023-04-20T08:51:47;98390.13;;;11.95;57.07
10587;BME280;5341;47.606;7.576;2023-04-20T08:54:14;98395.28;;;11.97;57.16
10587;BME280;5341;47.606;7.576;2023-04-20T08:56:44;98393.44;;;11.97;57.33
10587;BME280;5341;47.606;7.576;2023-04-20T08:59:13;98381.69;;;11.98;56.83
10587;BME280;5341;47.606;7.576;2023-04-20T09:01:43;98372.81;;;11.98;57.30
10587;BME280;5341;47.606;7.576;2023-04-20T09:04:16;98361.06;;;11.99;57.14
10587;BME280;5341;47.606;7.576;2023-04-20T09:06:44;98374.31;;;12.00;57.37
10587;BME280;5341;47.606;7.576;2023-04-20T09:09:12;98375.75;;;12.03;57.19
10587;BME280;5341;47.606;7.576;2023-04-20T09:11:40;98369.56;;;12.02;57.31
10587;BME280;5341;47.606;7.576;2023-04-20T09:14:09;98362.16;;;12.05;57.79
10587;BME280;5341;47.606;7.576;2023-04-20T09:16:38;98365.44;;;12.07;57.58
10587;BME280;5341;47.606;7.576;2023-04-20T09:19:24;98366.06;;;12.09;57.44
10587;BME280;5341;47.606;7.576;2023-04-20T09:21:54;98374.09;;;12.09;57.75
10587;BME280;5341;47.606;7.576;2023-04-20T09:24:29;98372.88;;;12.11;56.97
10587;BME280;5341;47.606;7.576;2023-04-20T09:26:56;98377.22;;;12.12;57.65
10587;BME280;5341;47.606;7.576;2023-04-20T09:29:24;98375.38;;;12.13;57.67
10587;BME280;5341;47.606;7.576;2023-04-20T09:31:53;98374.53;;;12.12;57.44
10587;BME280;5341;47.606;7.576;2023-04-20T09:34:25;98370.19;;;12.11;57.84
10587;BME280;5341;47.606;7.576;2023-04-20T09:36:53;98385.28;;;12.12;57.71
10587;BME280;5341;47.606;7.576;2023-04-20T09:39:22;98386.28;;;12.11;57.29
10587;BME280;5341;47.606;7.576;2023-04-20T09:41:59;98382.59;;;12.12;57.61
10587;BME280;5341;47.606;7.576;2023-04-20T09:44:30;98380.91;;;12.11;57.00
10587;BME280;5341;47.606;7.576;2023-04-20T09:46:59;98387.31;;;12.10;56.74
10587;BME280;5341;47.606;7.576;2023-04-20T09:49:29;98396.56;;;12.08;56.59
10587;BME280;5341;47.606;7.576;2023-04-20T09:52:01;98395.13;;;12.05;56.81
10587;BME280;5341;47.606;7.576;2023-04-20T09:54:29;98389.97;;;12.03;56.77
10587;BME280;5341;47.606;7.576;2023-04-20T09:56:58;98389.94;;;11.97;56.41
10587;BME280;5341;47.606;7.576;2023-04-20T09:59:26;98394.47;;;11.96;55.96
10587;BME280;5341;47.606;7.576;2023-04-20T10:01:54;98386.44;;;11.96;55.86
10587;BME280;5341;47.606;7.576;2023-04-20T10:04:22;98388.06;;;11.97;56.41
10587;BME280;5341;47.606;7.576;2023-04-20T10:06:54;98390.97;;;11.96;56.16
10587;BME280;5341;47.606;7.576;2023-04-20T10:09:28;98388.47;;;11.94;56.29
10587;BME280;5341;47.606;7.576;2023-04-20T10:12:05;98382.31;;;11.94;55.89
10587;BME280;5341;47.606;7.576;2023-04-20T10:14:32;98375.91;;;11.95;56.42
10587;BME280;5341;47.606;7.576;2023-04-20T10:17:01;98377.56;;;11.96;56.17
10587;BME280;5341;47.606;7.576;2023-04-20T10:19:38;98372.22;;;11.96;56.24
10587;BME280;5341;47.606;7.576;2023-04-20T10:22:08;98375.72;;;11.96;56.29
10587;BME280;5341;47.606;7.576;2023-04-20T10:24:37;98383.75;;;11.96;56.33
10587;BME280;5341;47.606;7.576;2023-04-20T10:27:15;98384.56;;;11.97;55.88
10587;BME280;5341;47.606;7.576;2023-04-20T10:29:43;98387.66;;;11.94;56.22
10587;BME280;5341;47.606;7.576;2023-04-20T10:32:20;98384.78;;;11.95;55.74
10587;BME280;5341;47.606;7.576;2023-04-20T10:34:59;98371.38;;;11.95;55.78
10587;BME280;5341;47.606;7.576;2023-04-20T10:37:29;98371.38;;;11.95;55.82
10587;BME280;5341;47.606;7.576;2023-04-20T10:39:57;98381.06;;;11.96;56.09
10587;BME280;5341;47.606;7.576;2023-04-20T10:42:24;98373.84;;;11.97;55.91
10587;BME280;5341;47.606;7.576;2023-04-20T10:44:54;98383.38;;;11.99;55.79
10587;BME280;5341;47.606;7.576;2023-04-20T10:47:29;98379.84;;;11.99;56.31
10587;BME280;5341;47.606;7.576;2023-04-20T10:50:05;98382.13;;;12.02;56.49
10587;BME280;5341;47.606;7.576;2023-04-20T10:52:36;98375.53;;;12.05;56.20
10587;BME280;5341;47.606;7.576;2023-04-20T10:55:06;98364.63;;;12.06;56.37
10587;BME280;5341;47.606;7.576;2023-04-20T10:57:35;98355.13;;;12.10;56.26
10587;BME280;5341;47.606;7.576;2023-04-20T11:00:13;98363.41;;;12.15;55.97
10587;BME280;5341;47.606;7.576;2023-04-20T11:02:47;98360.53;;;12.17;56.12
10587;BME280;5341;47.606;7.576;2023-04-20T11:05:16;98363.00;;;12.18;55.97
10587;BME280;5341;47.606;7.576;2023-04-20T11:07:50;98363.41;;;12.22;55.86
10587;BME280;5341;47.606;7.576;2023-04-20T11:10:18;98357.03;;;12.23;56.06
10587;BME280;5341;47.606;7.576;2023-04-20T11:12:46;98352.31;;;12.25;55.63
10587;BME280;5341;47.606;7.576;2023-04-20T11:15:14;98347.56;;;12.27;55.60
10587;BME280;5341;47.606;7.576;2023-04-20T11:17:42;98343.66;;;12.29;56.05
10587;BME280;5341;47.606;7.576;2023-04-20T11:20:12;98350.44;;;12.32;55.50
10587;BME280;5341;47.606;7.576;2023-04-20T11:22:41;98344.88;;;12.33;55.90
10587;BME280;5341;47.606;7.576;2023-04-20T11:25:11;98345.31;;;12.37;56.32
10587;BME280;5341;47.606;7.576;2023-04-20T11:27:39;98334.78;;;12.42;55.75
10587;BME280;5341;47.606;7.576;2023-04-20T11:30:08;98331.28;;;12.42;55.57
10587;BME280;5341;47.606;7.576;2023-04-20T11:32:36;98321.59;;;12.41;55.11
10587;BME280;5341;47.606;7.576;2023-04-20T11:35:08;98321.41;;;12.42;55.58
10587;BME280;5341;47.606;7.576;2023-04-20T11:37:45;98319.13;;;12.46;55.82
10587;BME280;5341;47.606;7.576;2023-04-20T11:40:15;98316.22;;;12.47;55.88
10587;BME280;5341;47.606;7.576;2023-04-20T11:42:43;98306.97;;;12.50;56.02
10587;BME280;5341;47.606;7.576;2023-04-20T11:45:11;98312.75;;;12.53;55.49
10587;BME280;5341;47.606;7.576;2023-04-20T11:47:38;98312.53;;;12.55;55.35
10587;BME280;5341;47.606;7.576;2023-04-20T11:50:07;98313.56;;;12.60;55.41
10587;BME280;5341;47.606;7.576;2023-04-20T11:52:35;98309.44;;;12.65;55.89
10587;BME280;5341;47.606;7.576;2023-04-20T11:55:02;98308.41;;;12.66;57.13
10587;BME280;5341;47.606;7.576;2023-04-20T11:57:32;98309.84;;;12.75;56.84
10587;BME280;5341;47.606;7.576;2023-04-20T11:59:59;98317.50;;;12.84;56.71
10587;BME280;5341;47.606;7.576;2023-04-20T12:02:27;98314.19;;;12.89;56.29
10587;BME280;5341;47.606;7.576;2023-04-20T12:04:54;98323.66;;;12.91;55.79
10587;BME280;5341;47.606;7.576;2023-04-20T12:07:22;98320.78;;;12.93;55.64
10587;BME280;5341;47.606;7.576;2023-04-20T12:09:50;98320.34;;;12.96;55.69
10587;BME280;5341;47.606;7.576;2023-04-20T12:12:17;98316.44;;;12.99;55.78
10587;BME280;5341;47.606;7.576;2023-04-20T12:14:46;98318.09;;;13.00;55.27
10587;BME280;5341;47.606;7.576;2023-04-20T12:17:19;98313.94;;;13.04;55.79
10587;BME280;5341;47.606;7.576;2023-04-20T12:19:47;98312.69;;;13.06;55.74
10587;BME280;5341;47.606;7.576;2023-04-20T12:22:15;98306.72;;;13.11;55.76
10587;BME280;5341;47.606;7.576;2023-04-20T12:24:43;98296.59;;;13.13;55.38
10587;BME280;5341;47.606;7.576;2023-04-20T12:27:11;98297.81;;;13.17;55.51
10587;BME280;5341;47.606;7.576;2023-04-20T12:29:39;98293.91;;;13.19;55.51
10587;BME280;5341;47.606;7.576;2023-04-20T12:32:08;98282.34;;;13.19;54.78
10587;BME280;5341;47.606;7.576;2023-04-20T12:34:35;98286.50;;;13.22;54.83
10587;BME280;5341;47.606;7.576;2023-04-20T12:37:03;98281.31;;;13.27;54.74
10587;BME280;5341;47.606;7.576;2023-04-20T12:39:30;98278.41;;;13.35;55.15
10587;BME280;5341;47.606;7.576;2023-04-20T12:41:58;98280.81;;;13.43;55.58
10587;BME280;5341;47.606;7.576;2023-04-20T12:44:27;98276.66;;;13.54;55.51
10587;BME280;5341;47.606;7.576;2023-04-20T12:46:55;98273.34;;;13.58;55.12
10587;BME280;5341;47.606;7.576;2023-04-20T12:49:24;98283.00;;;13.66;55.19
10587;BME280;5341;47.606;7.576;2023-04-20T12:51:51;98280.94;;;13.68;54.76
10587;BME280;5341;47.606;7.576;2023-04-20T12:54:18;98282.19;;;13.65;54.50
10587;BME280;5341;47.606;7.576;2023-04-20T12:56:46;98291.69;;;13.68;54.40
10587;BME280;5341;47.606;7.576;2023-04-20T12:59:14;98280.09;;;13.67;54.23
10587;BME280;5341;47.606;7.576;2023-04-20T13:01:41;98285.06;;;13.70;54.20
10587;BME280;5341;47.606;7.576;2023-04-20T13:04:08;98283.81;;;13.73;54.25
10587;BME280;5341;47.606;7.576;2023-04-20T13:06:37;98275.09;;;13.77;54.17
10587;BME280;5341;47.606;7.576;2023-04-20T13:09:05;98272.41;;;13.84;54.16
10587;BME280;5341;47.606;7.576;2023-04-20T13:11:32;98266.13;;;13.90;54.17
10587;BME280;5341;47.606;7.576;2023-04-20T13:14:00;98271.72;;;13.95;54.22
10587;BME280;5341;47.606;7.576;2023-04-20T13:16:27;98269.41;;;13.99;53.53
10587;BME280;5341;47.606;7.576;2023-04-20T13:18:55;98276.44;;;14.00;53.45